Time;durP1;ratioP1;P1;durP2;ratioP2;P2;SDS_P1;SDS_P2;PMS_P1;PMS_P2;Temp;Humidity;BMP_temperature;BMP_pressure;BME280_temperature;BME280_humidity;BME280_pressure;Samples;Min_cycle;Max_cycle;Signal;HPM_P1;HPM_P2
2021/12/29 00:01:46;;;;;;;17.48;12.25;;;;;;;;;;5048769;28;20021;-83
2021/12/29 00:04:12;;;;;;;20.38;11.82;;;;;;;;;;5054401;28;20135;-84
2021/12/29 00:06:37;;;;;;;23.15;13.40;;;;;;;;;;5042372;28;20103;-84
2021/12/29 00:09:03;;;;;;;19.30;12.88;;;;;;;;;;5048488;28;20468;-83
2021/12/29 00:11:29;;;;;;;17.33;10.20;;;;;;;;;;5036449;28;20093;-84
2021/12/29 00:13:55;;;;;;;14.02;10.48;;;;;;;;;;5048110;28;20518;-83
2021/12/29 00:16:20;;;;;;;11.73;8.40;;;;;;;;;;5045341;28;20035;-83
2021/12/29 00:18:46;;;;;;;18.08;9.57;;;;;;;;;;5035923;28;20074;-84
2021/12/29 00:21:14;;;;;;;12.50;7.00;;;;;;;;;;5048370;28;20049;-83
2021/12/29 00:23:39;;;;;;;13.57;7.70;;;;;;;;;;5046318;28;20056;-83
2021/12/29 00:26:11;;;;;;;12.77;7.50;;;;;;;;;;5034903;28;20114;-84
2021/12/29 00:28:36;;;;;;;8.00;5.63;;;;;;;;;;5046317;28;20029;-83
2021/12/29 00:31:02;;;;;;;7.53;5.30;;;;;;;;;;5048245;28;20443;-84
2021/12/29 00:33:28;;;;;;;11.18;6.38;;;;;;;;;;5047438;28;20036;-83
2021/12/29 00:35:53;;;;;;;10.30;7.35;;;;;;;;;;5049995;28;20041;-83
2021/12/29 00:38:20;;;;;;;10.93;6.28;;;;;;;;;;5035835;28;20048;-83
2021/12/29 00:40:45;;;;;;;8.75;5.40;;;;;;;;;;5053655;28;20028;-84
2021/12/29 00:43:11;;;;;;;8.52;5.63;;;;;;;;;;5037558;28;20029;-83
2021/12/29 00:45:39;;;;;;;9.25;4.28;;;;;;;;;;5048245;28;20030;-82
2021/12/29 00:48:10;;;;;;;7.93;4.95;;;;;;;;;;5034687;28;20112;-82
2021/12/29 00:50:36;;;;;;;9.70;6.13;;;;;;;;;;5040540;28;20020;-82
2021/12/29 00:53:01;;;;;;;10.48;5.97;;;;;;;;;;5045510;28;20112;-83
2021/12/29 00:55:27;;;;;;;10.88;5.60;;;;;;;;;;5045698;28;20057;-82
2021/12/29 00:57:52;;;;;;;11.73;6.47;;;;;;;;;;5053355;28;20056;-83
2021/12/29 01:00:21;;;;;;;8.02;5.38;;;;;;;;;;5050858;28;20027;-82
2021/12/29 01:02:47;;;;;;;5.25;3.38;;;;;;;;;;5046648;28;20067;-83
2021/12/29 01:05:14;;;;;;;7.97;4.57;;;;;;;;;;5048813;28;20029;-82
2021/12/29 01:07:41;;;;;;;6.13;3.30;;;;;;;;;;5051559;28;20048;-81
2021/12/29 01:10:08;;;;;;;9.50;5.47;;;;;;;;;;5036737;28;20044;-83
2021/12/29 01:12:33;;;;;;;7.90;5.65;;;;;;;;;;5049240;28;20155;-83
2021/12/29 01:15:01;;;;;;;9.95;6.78;;;;;;;;;;5049325;28;20112;-82
2021/12/29 01:17:27;;;;;;;8.90;5.70;;;;;;;;;;5039522;28;20025;-82
2021/12/29 01:19:54;;;;;;;8.32;5.28;;;;;;;;;;5051512;28;20037;-82
2021/12/29 01:22:21;;;;;;;8.63;4.65;;;;;;;;;;5052739;28;20057;-82
2021/12/29 01:24:48;;;;;;;6.35;4.07;;;;;;;;;;5060739;28;20154;-83
2021/12/29 01:27:14;;;;;;;8.68;5.30;;;;;;;;;;5063846;28;20430;-81
2021/12/29 01:29:41;;;;;;;8.57;5.07;;;;;;;;;;5053422;28;20058;-81
2021/12/29 01:32:07;;;;;;;11.85;6.57;;;;;;;;;;5056628;28;20054;-81
2021/12/29 01:34:33;;;;;;;7.88;5.20;;;;;;;;;;5039732;28;20036;-81
2021/12/29 01:36:59;;;;;;;10.18;6.43;;;;;;;;;;5037594;28;20029;-82
2021/12/29 01:39:25;;;;;;;10.05;6.75;;;;;;;;;;5057428;28;20033;-82
2021/12/29 01:41:52;;;;;;;13.77;7.53;;;;;;;;;;5039301;28;20043;-82
2021/12/29 01:44:21;;;;;;;11.55;7.20;;;;;;;;;;5061154;28;20028;-82
2021/12/29 01:46:47;;;;;;;9.75;6.35;;;;;;;;;;5054083;28;20107;-80
2021/12/29 01:49:13;;;;;;;9.10;6.10;;;;;;;;;;5052600;28;20136;-81
2021/12/29 01:51:48;;;;;;;10.48;5.72;;;;;;;;;;5051488;28;20029;-80
2021/12/29 01:54:16;;;;;;;11.15;5.43;;;;;;;;;;5056951;28;20039;-81
2021/12/29 01:56:46;;;;;;;9.57;5.50;;;;;;;;;;5059625;28;20021;-83
2021/12/29 01:59:13;;;;;;;8.30;5.00;;;;;;;;;;5051338;28;20052;-80
2021/12/29 02:01:40;;;;;;;6.97;4.50;;;;;;;;;;5037958;28;20025;-81
2021/12/29 02:04:05;;;;;;;5.40;3.83;;;;;;;;;;5064541;28;20077;-83
2021/12/29 02:06:31;;;;;;;7.35;4.85;;;;;;;;;;5054074;28;20116;-84
2021/12/29 02:08:57;;;;;;;9.93;4.60;;;;;;;;;;5045570;28;20036;-84
2021/12/29 02:11:29;;;;;;;8.18;4.30;;;;;;;;;;5059986;28;20032;-82
2021/12/29 02:14:00;;;;;;;6.47;3.20;;;;;;;;;;5059095;28;20052;-84
2021/12/29 02:16:26;;;;;;;5.95;3.95;;;;;;;;;;5056010;28;20070;-86
2021/12/29 02:19:00;;;;;;;7.00;3.88;;;;;;;;;;5058611;28;20495;-83
2021/12/29 02:21:28;;;;;;;8.10;3.95;;;;;;;;;;5052738;28;20037;-83
2021/12/29 02:24:15;;;;;;;5.68;3.40;;;;;;;;;;5053383;28;20025;-82
2021/12/29 02:26:41;;;;;;;8.57;4.55;;;;;;;;;;5061031;28;20025;-83
2021/12/29 02:29:12;;;;;;;6.72;3.78;;;;;;;;;;5051661;28;20064;-84
2021/12/29 02:31:38;;;;;;;9.10;5.30;;;;;;;;;;5034126;28;20028;-82
2021/12/29 02:34:07;;;;;;;7.70;4.88;;;;;;;;;;5052720;28;20055;-83
2021/12/29 02:36:33;;;;;;;11.13;6.03;;;;;;;;;;5050968;28;20082;-83
2021/12/29 02:38:58;;;;;;;10.88;6.68;;;;;;;;;;5056543;28;20115;-84
2021/12/29 02:41:26;;;;;;;15.23;7.07;;;;;;;;;;5058874;28;20036;-82
2021/12/29 02:43:59;;;;;;;12.60;7.80;;;;;;;;;;5053801;28;20464;-83
2021/12/29 02:46:26;;;;;;;12.57;6.45;;;;;;;;;;5041462;28;20087;-82
2021/12/29 02:48:59;;;;;;;10.38;6.32;;;;;;;;;;5053060;28;20033;-82
2021/12/29 02:51:30;;;;;;;13.32;7.85;;;;;;;;;;5054931;28;20021;-82
2021/12/29 02:53:56;;;;;;;12.70;7.63;;;;;;;;;;5044392;28;20040;-82
2021/12/29 02:56:23;;;;;;;12.90;7.45;;;;;;;;;;5064471;28;20032;-82
2021/12/29 02:58:49;;;;;;;10.23;6.80;;;;;;;;;;5061486;28;20029;-81
2021/12/29 03:01:17;;;;;;;12.00;7.28;;;;;;;;;;5051306;28;20029;-83
2021/12/29 03:03:43;;;;;;;11.63;6.90;;;;;;;;;;5052201;28;20090;-83
2021/12/29 03:06:10;;;;;;;11.98;7.25;;;;;;;;;;5039203;28;20028;-84
2021/12/29 03:08:37;;;;;;;14.30;8.10;;;;;;;;;;5057206;28;20048;-83
2021/12/29 03:11:04;;;;;;;14.07;7.75;;;;;;;;;;5046288;28;20093;-84
2021/12/29 03:13:32;;;;;;;9.48;5.97;;;;;;;;;;5063799;28;20062;-83
2021/12/29 03:15:57;;;;;;;10.68;6.00;;;;;;;;;;5063125;28;20120;-83
2021/12/29 03:18:23;;;;;;;8.82;5.47;;;;;;;;;;5055149;28;20108;-83
2021/12/29 03:20:49;;;;;;;8.02;5.78;;;;;;;;;;5049516;28;20028;-82
2021/12/29 03:23:16;;;;;;;10.02;6.28;;;;;;;;;;5064546;28;20028;-81
2021/12/29 03:25:41;;;;;;;7.45;5.82;;;;;;;;;;5055240;28;20025;-82
2021/12/29 03:28:08;;;;;;;10.23;5.78;;;;;;;;;;5060667;28;20028;-81
2021/12/29 03:30:36;;;;;;;8.90;4.95;;;;;;;;;;5059626;28;20111;-81
2021/12/29 03:33:07;;;;;;;8.15;4.80;;;;;;;;;;5047848;28;20029;-82
2021/12/29 03:35:47;;;;;;;8.70;4.90;;;;;;;;;;5056549;28;20020;-82
2021/12/29 03:38:14;;;;;;;;;;;;;;;;;;5059889;28;20032;-82
2021/12/29 03:40:40;;;;;;;6.40;3.95;;;;;;;;;;5064247;28;19924;-83
2021/12/29 03:43:08;;;;;;;6.15;4.00;;;;;;;;;;5061595;28;20025;-82
2021/12/29 03:45:34;;;;;;;7.82;4.47;;;;;;;;;;5044890;28;20028;-82
2021/12/29 03:48:00;;;;;;;10.50;5.55;;;;;;;;;;5049419;28;20396;-82
2021/12/29 03:50:25;;;;;;;7.55;4.82;;;;;;;;;;5046626;28;20035;-83
2021/12/29 03:52:51;;;;;;;8.93;5.07;;;;;;;;;;5066262;28;20115;-82
2021/12/29 03:55:17;;;;;;;9.05;5.55;;;;;;;;;;5054731;28;20079;-82
2021/12/29 03:57:42;;;;;;;8.38;5.28;;;;;;;;;;5059219;28;20473;-82
2021/12/29 04:00:12;;;;;;;9.05;5.03;;;;;;;;;;5041568;28;20037;-82
2021/12/29 04:02:38;;;;;;;8.55;4.85;;;;;;;;;;5064555;28;20451;-83
2021/12/29 04:05:06;;;;;;;9.02;5.22;;;;;;;;;;5047963;28;20381;-82
2021/12/29 04:07:33;;;;;;;10.98;5.68;;;;;;;;;;5055777;28;20063;-82
2021/12/29 04:09:59;;;;;;;9.07;5.10;;;;;;;;;;5057416;28;20037;-83
2021/12/29 04:12:25;;;;;;;7.47;4.72;;;;;;;;;;5054301;28;20451;-83
2021/12/29 04:14:50;;;;;;;7.90;4.90;;;;;;;;;;5047814;28;20107;-83
2021/12/29 04:17:18;;;;;;;8.80;4.78;;;;;;;;;;5036083;28;20116;-81
2021/12/29 04:22:30;;;;;;;7.15;4.93;;;;;;;;;;5067453;28;20055;-82
2021/12/29 04:24:56;;;;;;;7.15;4.50;;;;;;;;;;5061533;28;20074;-82
2021/12/29 04:27:24;;;;;;;7.05;4.32;;;;;;;;;;5056256;28;20071;-82
2021/12/29 04:29:49;;;;;;;7.18;4.15;;;;;;;;;;5043715;28;20033;-81
2021/12/29 04:32:15;;;;;;;8.55;4.63;;;;;;;;;;5057764;28;20036;-82
2021/12/29 04:34:40;;;;;;;6.57;4.05;;;;;;;;;;5056100;28;20032;-81
2021/12/29 04:37:06;;;;;;;9.15;5.72;;;;;;;;;;5044846;28;20041;-82
2021/12/29 04:39:31;;;;;;;8.00;4.28;;;;;;;;;;5032651;28;20112;-82
2021/12/29 04:41:57;;;;;;;5.00;3.83;;;;;;;;;;5062149;28;20098;-81
2021/12/29 04:44:22;;;;;;;5.50;3.75;;;;;;;;;;5063654;28;20524;-83
2021/12/29 04:46:48;;;;;;;6.65;4.05;;;;;;;;;;5070338;28;20064;-82
2021/12/29 04:49:21;;;;;;;6.00;3.55;;;;;;;;;;5057877;28;20036;-81
2021/12/29 04:51:52;;;;;;;6.03;3.60;;;;;;;;;;5058836;28;20471;-82
2021/12/29 04:54:17;;;;;;;6.30;3.83;;;;;;;;;;5054566;28;20485;-82
2021/12/29 04:56:44;;;;;;;4.63;3.47;;;;;;;;;;5058723;28;20033;-83
2021/12/29 04:59:10;;;;;;;5.10;3.03;;;;;;;;;;5053455;28;20020;-84
2021/12/29 05:01:35;;;;;;;5.90;3.58;;;;;;;;;;5055141;28;20407;-83
2021/12/29 05:04:01;;;;;;;6.45;3.75;;;;;;;;;;5053276;28;20378;-84
2021/12/29 05:09:10;;;;;;;8.38;3.60;;;;;;;;;;5053948;28;20031;-82
2021/12/29 05:11:35;;;;;;;7.25;4.28;;;;;;;;;;5059684;28;20028;-82
2021/12/29 05:14:01;;;;;;;11.88;5.93;;;;;;;;;;5059441;28;20033;-81
2021/12/29 05:16:28;;;;;;;9.45;5.40;;;;;;;;;;5050643;28;20461;-82
2021/12/29 05:18:56;;;;;;;7.90;3.83;;;;;;;;;;5050719;28;20025;-81
2021/12/29 05:21:23;;;;;;;7.38;4.28;;;;;;;;;;5038659;28;20052;-82
2021/12/29 05:23:49;;;;;;;6.57;3.67;;;;;;;;;;5058847;28;20519;-82
2021/12/29 05:26:15;;;;;;;7.07;4.40;;;;;;;;;;5053010;28;20032;-82
2021/12/29 05:28:40;;;;;;;6.38;3.80;;;;;;;;;;5039686;28;20030;-82
2021/12/29 05:31:06;;;;;;;12.80;6.88;;;;;;;;;;5053045;28;20108;-83
2021/12/29 05:33:31;;;;;;;24.00;11.75;;;;;;;;;;5055023;28;20059;-83
2021/12/29 05:35:57;;;;;;;15.90;8.02;;;;;;;;;;5037361;28;20124;-83
2021/12/29 05:38:23;;;;;;;7.28;4.30;;;;;;;;;;5043610;28;20029;-82
2021/12/29 05:40:50;;;;;;;5.97;3.97;;;;;;;;;;5043921;28;20112;-83
2021/12/29 05:43:16;;;;;;;6.60;4.72;;;;;;;;;;5057925;28;20112;-83
2021/12/29 05:45:42;;;;;;;6.95;4.32;;;;;;;;;;5054819;28;20544;-83
2021/12/29 05:48:07;;;;;;;8.55;4.85;;;;;;;;;;5058976;28;20051;-83
2021/12/29 05:50:33;;;;;;;8.10;3.92;;;;;;;;;;5041168;28;20072;-82
2021/12/29 05:53:00;;;;;;;7.75;4.18;;;;;;;;;;5056884;28;20032;-82
2021/12/29 05:55:26;;;;;;;12.40;6.07;;;;;;;;;;5055605;28;20396;-82
2021/12/29 05:57:52;;;;;;;13.38;8.02;;;;;;;;;;5058702;28;20052;-82
2021/12/29 06:00:20;;;;;;;13.88;8.15;;;;;;;;;;5049408;28;20071;-82
2021/12/29 06:02:49;;;;;;;10.80;7.30;;;;;;;;;;5054083;28;20024;-82
2021/12/29 06:05:16;;;;;;;15.07;8.67;;;;;;;;;;5052695;28;20025;-81
2021/12/29 06:07:42;;;;;;;11.88;6.40;;;;;;;;;;5041597;28;20254;-81
2021/12/29 06:10:09;;;;;;;12.10;6.63;;;;;;;;;;5036008;28;20061;-81
2021/12/29 06:12:36;;;;;;;8.65;4.72;;;;;;;;;;5036783;28;20123;-81
2021/12/29 06:15:03;;;;;;;10.68;5.65;;;;;;;;;;5039977;28;20028;-81
2021/12/29 06:17:28;;;;;;;9.25;6.30;;;;;;;;;;5057560;28;20072;-82
2021/12/29 06:19:54;;;;;;;10.30;6.00;;;;;;;;;;5052158;28;20507;-81
2021/12/29 06:22:19;;;;;;;16.85;8.98;;;;;;;;;;5022507;28;20132;-82
2021/12/29 06:24:51;;;;;;;12.02;6.95;;;;;;;;;;5013382;28;20045;-82
2021/12/29 06:27:17;;;;;;;14.98;8.00;;;;;;;;;;5036811;28;20028;-81
2021/12/29 06:29:44;;;;;;;14.30;6.90;;;;;;;;;;5029365;28;20056;-84
2021/12/29 06:32:10;;;;;;;10.65;6.97;;;;;;;;;;5033032;28;20057;-82
2021/12/29 06:34:36;;;;;;;12.40;6.93;;;;;;;;;;5035227;28;20838;-81
2021/12/29 06:37:08;;;;;;;11.90;6.85;;;;;;;;;;5034874;28;20478;-82
2021/12/29 06:39:36;;;;;;;10.57;7.05;;;;;;;;;;5039076;28;20078;-82
2021/12/29 06:42:02;;;;;;;10.77;7.38;;;;;;;;;;5034345;28;20091;-83
2021/12/29 06:44:28;;;;;;;13.52;9.02;;;;;;;;;;5033782;28;20041;-82
2021/12/29 06:46:53;;;;;;;16.95;10.30;;;;;;;;;;5034063;28;20032;-83
2021/12/29 06:49:20;;;;;;;14.10;8.95;;;;;;;;;;5015546;28;20072;-83
2021/12/29 06:51:45;;;;;;;17.73;9.00;;;;;;;;;;5013038;28;20063;-81
2021/12/29 06:54:11;;;;;;;15.15;8.88;;;;;;;;;;5034657;28;20438;-81
2021/12/29 06:56:36;;;;;;;13.63;8.52;;;;;;;;;;5032443;28;20124;-85
2021/12/29 06:59:02;;;;;;;15.80;9.95;;;;;;;;;;5014513;28;20409;-82
2021/12/29 07:01:27;;;;;;;14.65;9.32;;;;;;;;;;5035143;28;20036;-85
2021/12/29 07:03:53;;;;;;;16.80;9.77;;;;;;;;;;5015198;28;20088;-83
2021/12/29 07:06:19;;;;;;;18.55;10.70;;;;;;;;;;5031071;28;20412;-81
2021/12/29 07:08:45;;;;;;;17.33;9.95;;;;;;;;;;5016990;28;20081;-83
2021/12/29 07:11:10;;;;;;;19.02;11.70;;;;;;;;;;5036268;28;20489;-88
2021/12/29 07:13:37;;;;;;;17.40;10.25;;;;;;;;;;5021778;28;20022;-84
2021/12/29 07:16:03;;;;;;;20.00;13.32;;;;;;;;;;5014528;28;20037;-85
2021/12/29 07:18:28;;;;;;;21.00;12.85;;;;;;;;;;5030848;28;20055;-83
2021/12/29 07:20:54;;;;;;;22.02;12.75;;;;;;;;;;5034281;28;20096;-84
2021/12/29 07:23:19;;;;;;;18.85;12.00;;;;;;;;;;5032982;28;20032;-83
2021/12/29 07:25:45;;;;;;;20.95;13.35;;;;;;;;;;5049926;28;20097;-84
2021/12/29 07:28:10;;;;;;;27.10;15.43;;;;;;;;;;5028942;28;20025;-83
2021/12/29 07:30:36;;;;;;;25.20;15.40;;;;;;;;;;5038869;28;20116;-86
2021/12/29 07:33:01;;;;;;;25.63;16.38;;;;;;;;;;5046725;28;20028;-84
2021/12/29 07:35:27;;;;;;;28.70;18.00;;;;;;;;;;5032843;28;20034;-84
2021/12/29 07:37:53;;;;;;;30.50;17.00;;;;;;;;;;5047640;28;20017;-86
2021/12/29 07:40:18;;;;;;;30.52;17.55;;;;;;;;;;5038298;28;20025;-84
2021/12/29 07:42:45;;;;;;;26.48;16.52;;;;;;;;;;5051592;28;20029;-85
2021/12/29 07:45:11;;;;;;;29.27;18.42;;;;;;;;;;5047694;28;20033;-88
2021/12/29 07:47:41;;;;;;;29.02;18.10;;;;;;;;;;5049533;28;20036;-84
2021/12/29 07:50:06;;;;;;;;;;;;;;;;;;5026139;28;20037;-84
2021/12/29 07:52:32;;;;;;;24.63;16.20;;;;;;;;;;5032638;28;19939;-86
2021/12/29 07:54:57;;;;;;;28.42;17.52;;;;;;;;;;5047741;28;20033;-85
2021/12/29 07:57:23;;;;;;;29.80;19.00;;;;;;;;;;5037541;28;20488;-88
2021/12/29 07:59:49;;;;;;;28.88;18.27;;;;;;;;;;5033074;28;20029;-85
2021/12/29 08:02:17;;;;;;;30.40;18.88;;;;;;;;;;5044905;28;20085;-86
2021/12/29 08:04:43;;;;;;;31.08;19.58;;;;;;;;;;5050315;28;20362;-81
2021/12/29 08:07:09;;;;;;;29.88;20.15;;;;;;;;;;5050796;28;20036;-79
2021/12/29 08:09:34;;;;;;;30.30;19.35;;;;;;;;;;5045601;28;20025;-80
2021/12/29 08:12:00;;;;;;;30.63;21.17;;;;;;;;;;5048887;28;20037;-81
2021/12/29 08:14:25;;;;;;;29.45;19.10;;;;;;;;;;5034381;28;20393;-80
2021/12/29 08:16:51;;;;;;;69.47;43.65;;;;;;;;;;5052314;28;20029;-80
2021/12/29 08:19:16;;;;;;;44.88;28.95;;;;;;;;;;5049912;28;20139;-80
2021/12/29 08:21:42;;;;;;;31.85;19.00;;;;;;;;;;5053632;28;20053;-82
2021/12/29 08:24:08;;;;;;;30.10;20.10;;;;;;;;;;5038871;28;20115;-81
2021/12/29 08:26:34;;;;;;;32.78;19.65;;;;;;;;;;5053753;28;20370;-81
2021/12/29 08:29:01;;;;;;;32.30;19.33;;;;;;;;;;5056812;28;20115;-80
2021/12/29 08:31:27;;;;;;;29.35;18.05;;;;;;;;;;5037348;28;20524;-81
2021/12/29 08:33:53;;;;;;;24.73;16.20;;;;;;;;;;5056737;28;20116;-81
2021/12/29 08:36:19;;;;;;;24.95;15.98;;;;;;;;;;5053175;28;20059;-82
2021/12/29 08:38:44;;;;;;;24.15;15.38;;;;;;;;;;5053214;28;20032;-81
2021/12/29 08:41:11;;;;;;;27.50;17.02;;;;;;;;;;5052725;28;20033;-82
2021/12/29 08:43:37;;;;;;;38.25;24.05;;;;;;;;;;5052898;28;20032;-79
2021/12/29 08:46:03;;;;;;;30.67;20.50;;;;;;;;;;5048845;28;20103;-80
2021/12/29 08:48:28;;;;;;;26.75;17.65;;;;;;;;;;5052605;28;20027;-81
2021/12/29 08:50:58;;;;;;;26.00;18.73;;;;;;;;;;5052613;28;20117;-80
2021/12/29 08:53:24;;;;;;;;;;;;;;;;;;5058496;28;20017;-80
2021/12/29 08:55:50;;;;;;;34.65;20.20;;;;;;;;;;5038343;28;19936;-80
2021/12/29 08:58:17;;;;;;;28.77;17.42;;;;;;;;;;5036481;28;20476;-80
2021/12/29 09:00:46;;;;;;;30.20;18.23;;;;;;;;;;5052286;28;20028;-81
2021/12/29 09:03:11;;;;;;;35.63;21.13;;;;;;;;;;5054338;28;20029;-80
2021/12/29 09:05:37;;;;;;;36.83;22.58;;;;;;;;;;5053820;28;20484;-79
2021/12/29 09:08:03;;;;;;;52.97;27.58;;;;;;;;;;5052015;28;20472;-79
2021/12/29 09:10:29;;;;;;;52.33;30.20;;;;;;;;;;5061985;28;20035;-80
2021/12/29 09:12:55;;;;;;;56.15;32.75;;;;;;;;;;5054527;28;20472;-82
2021/12/29 09:15:21;;;;;;;46.88;28.50;;;;;;;;;;5053982;28;20377;-81
2021/12/29 09:17:47;;;;;;;49.40;29.35;;;;;;;;;;5059015;28;20027;-80
2021/12/29 09:20:25;;;;;;;46.25;27.13;;;;;;;;;;5052256;28;20369;-80
2021/12/29 09:22:51;;;;;;;43.60;25.85;;;;;;;;;;5053046;28;20048;-80
2021/12/29 09:25:21;;;;;;;44.85;28.17;;;;;;;;;;5052919;28;20090;-80
2021/12/29 09:27:49;;;;;;;43.45;27.75;;;;;;;;;;5053014;28;20166;-80
2021/12/29 09:30:18;;;;;;;48.05;32.03;;;;;;;;;;5053317;28;20460;-80
2021/12/29 09:32:44;;;;;;;43.85;27.35;;;;;;;;;;5045912;28;20028;-80
2021/12/29 09:35:09;;;;;;;69.80;35.65;;;;;;;;;;5049122;28;20195;-80
2021/12/29 09:37:35;;;;;;;87.28;41.65;;;;;;;;;;5052643;28;20399;-81
2021/12/29 09:40:00;;;;;;;111.40;60.28;;;;;;;;;;5056164;28;20576;-78
2021/12/29 09:42:26;;;;;;;114.80;50.63;;;;;;;;;;5053812;28;20029;-80
2021/12/29 09:44:52;;;;;;;145.05;93.65;;;;;;;;;;5052114;28;20029;-79
2021/12/29 09:47:19;;;;;;;278.92;97.50;;;;;;;;;;5050785;28;20029;-79
2021/12/29 09:49:44;;;;;;;236.48;67.35;;;;;;;;;;5036353;28;20121;-78
2021/12/29 09:52:10;;;;;;;43.20;24.77;;;;;;;;;;5037354;28;20113;-79
2021/12/29 09:54:36;;;;;;;37.55;26.67;;;;;;;;;;5039825;28;20056;-81
2021/12/29 09:57:03;;;;;;;33.33;20.88;;;;;;;;;;5050673;28;20025;-82
2021/12/29 09:59:29;;;;;;;37.33;21.88;;;;;;;;;;5055022;28;20032;-79
2021/12/29 10:01:56;;;;;;;34.63;23.25;;;;;;;;;;5033486;28;20032;-82
2021/12/29 10:04:21;;;;;;;29.42;20.48;;;;;;;;;;5054510;28;20033;-82
2021/12/29 10:06:47;;;;;;;25.65;15.25;;;;;;;;;;5046393;28;20028;-80
2021/12/29 10:09:15;;;;;;;27.70;17.10;;;;;;;;;;5056726;28;20924;-82
2021/12/29 10:11:42;;;;;;;25.52;16.45;;;;;;;;;;5056178;28;20069;-82
2021/12/29 10:14:13;;;;;;;26.40;17.30;;;;;;;;;;5050979;28;20032;-81
2021/12/29 10:16:40;;;;;;;31.55;21.40;;;;;;;;;;5030313;28;20481;-77
2021/12/29 10:19:14;;;;;;;32.17;19.92;;;;;;;;;;5049039;28;20064;-82
2021/12/29 10:21:44;;;;;;;30.83;20.25;;;;;;;;;;5046860;28;20045;-80
2021/12/29 10:24:10;;;;;;;30.00;19.70;;;;;;;;;;5043097;28;20029;-80
2021/12/29 10:26:43;;;;;;;38.40;21.27;;;;;;;;;;5043365;28;20033;-81
2021/12/29 10:29:13;;;;;;;32.15;20.58;;;;;;;;;;5035537;28;20029;-81
2021/12/29 10:31:43;;;;;;;39.38;22.85;;;;;;;;;;5032216;28;20029;-80
2021/12/29 10:34:29;;;;;;;62.88;26.30;;;;;;;;;;5044844;28;20427;-79
2021/12/29 10:36:55;;;;;;;43.38;24.83;;;;;;;;;;5045506;28;20041;-82
2021/12/29 10:39:24;;;;;;;42.45;24.27;;;;;;;;;;5027735;28;20029;-79
2021/12/29 10:42:04;;;;;;;41.47;23.13;;;;;;;;;;5044276;28;20032;-82
2021/12/29 10:44:45;;;;;;;32.83;21.02;;;;;;;;;;5027950;28;20112;-80
2021/12/29 10:47:21;;;;;;;37.28;23.10;;;;;;;;;;5049185;28;20083;-81
2021/12/29 10:49:58;;;;;;;39.80;24.02;;;;;;;;;;5048783;28;20021;-81
2021/12/29 10:52:35;;;;;;;50.63;30.52;;;;;;;;;;5042165;28;20037;-81
2021/12/29 10:55:05;;;;;;;79.50;34.03;;;;;;;;;;5045514;28;20439;-80
2021/12/29 10:57:31;;;;;;;39.58;24.30;;;;;;;;;;5047307;28;20049;-78
2021/12/29 10:59:57;;;;;;;43.38;25.23;;;;;;;;;;5042533;28;20037;-80
2021/12/29 11:02:35;;;;;;;37.13;23.30;;;;;;;;;;5036731;28;20388;-79
2021/12/29 11:05:08;;;;;;;36.95;23.40;;;;;;;;;;5047353;28;20472;-81
2021/12/29 11:07:35;;;;;;;45.33;25.08;;;;;;;;;;5047741;28;20029;-86
2021/12/29 11:10:27;;;;;;;43.15;25.98;;;;;;;;;;5049945;28;20033;-82
2021/12/29 11:12:54;;;;;;;38.67;23.65;;;;;;;;;;5039723;28;20116;-81
2021/12/29 11:15:23;;;;;;;37.63;22.35;;;;;;;;;;5046486;28;20029;-84
2021/12/29 11:17:51;;;;;;;38.00;24.08;;;;;;;;;;5045886;28;20025;-82
2021/12/29 11:20:19;;;;;;;43.70;25.05;;;;;;;;;;5044335;28;20036;-80
2021/12/29 11:22:45;;;;;;;41.72;26.83;;;;;;;;;;5046226;28;20140;-81
2021/12/29 11:25:10;;;;;;;39.67;24.60;;;;;;;;;;5052890;28;20103;-81
2021/12/29 11:27:37;;;;;;;42.58;24.15;;;;;;;;;;5046359;28;20536;-80
2021/12/29 11:30:06;;;;;;;36.22;23.23;;;;;;;;;;5043061;28;20468;-81
2021/12/29 11:32:37;;;;;;;37.28;22.88;;;;;;;;;;5046491;28;20083;-79
2021/12/29 11:35:09;;;;;;;38.78;26.02;;;;;;;;;;5032788;28;20025;-81
2021/12/29 11:37:42;;;;;;;45.10;24.00;;;;;;;;;;5045882;28;20037;-81
2021/12/29 11:40:09;;;;;;;32.08;19.75;;;;;;;;;;5043581;28;20039;-81
2021/12/29 11:42:35;;;;;;;32.70;18.15;;;;;;;;;;5053356;28;20058;-80
2021/12/29 11:45:01;;;;;;;29.98;18.92;;;;;;;;;;5053692;28;20033;-81
2021/12/29 11:47:27;;;;;;;30.98;19.25;;;;;;;;;;5051971;28;20054;-79
2021/12/29 11:49:53;;;;;;;36.90;19.88;;;;;;;;;;5047158;28;20138;-81
2021/12/29 11:52:28;;;;;;;32.90;20.60;;;;;;;;;;5050295;28;20511;-81
2021/12/29 11:55:19;;;;;;;33.40;18.90;;;;;;;;;;5050662;28;20117;-79
2021/12/29 11:57:45;;;;;;;30.40;18.33;;;;;;;;;;5052372;28;20029;-79
2021/12/29 12:00:21;;;;;;;30.45;20.92;;;;;;;;;;5048967;28;20079;-81
2021/12/29 12:02:52;;;;;;;34.03;21.27;;;;;;;;;;5052033;28;20024;-80
2021/12/29 12:05:32;;;;;;;27.35;17.08;;;;;;;;;;5031499;28;20139;-79
2021/12/29 12:08:08;;;;;;;28.25;19.02;;;;;;;;;;5047822;28;20091;-81
2021/12/29 12:10:36;;;;;;;40.38;25.52;;;;;;;;;;5044934;28;20040;-81
2021/12/29 12:13:21;;;;;;;27.70;17.95;;;;;;;;;;5049745;28;20456;-80
2021/12/29 12:15:46;;;;;;;32.58;20.30;;;;;;;;;;5051029;28;20388;-82
2021/12/29 12:18:12;;;;;;;31.63;20.52;;;;;;;;;;5053481;28;20024;-80
2021/12/29 12:20:44;;;;;;;34.25;20.73;;;;;;;;;;5053675;28;20033;-80
2021/12/29 12:23:28;;;;;;;34.38;20.80;;;;;;;;;;5053031;28;20056;-80
2021/12/29 12:26:07;;;;;;;34.00;22.55;;;;;;;;;;5034301;28;20025;-80
2021/12/29 12:28:46;;;;;;;31.40;20.52;;;;;;;;;;5049349;28;20448;-80
2021/12/29 12:31:31;;;;;;;30.58;19.88;;;;;;;;;;5051437;28;20029;-80
2021/12/29 12:34:11;;;;;;;29.65;19.65;;;;;;;;;;5048183;28;20422;-80
2021/12/29 12:36:39;;;;;;;37.33;21.63;;;;;;;;;;5046944;28;20057;-81
2021/12/29 12:39:11;;;;;;;34.70;22.77;;;;;;;;;;5051737;28;20036;-80
2021/12/29 12:41:50;;;;;;;32.92;21.50;;;;;;;;;;5049622;28;20029;-81
2021/12/29 12:44:19;;;;;;;40.00;24.35;;;;;;;;;;5053137;28;20447;-81
2021/12/29 12:46:51;;;;;;;41.47;26.27;;;;;;;;;;5050712;28;20104;-80
2021/12/29 12:49:30;;;;;;;51.33;29.67;;;;;;;;;;5032284;28;20041;-81
2021/12/29 12:52:02;;;;;;;48.97;28.60;;;;;;;;;;5050916;28;20116;-81
2021/12/29 12:54:33;;;;;;;47.95;27.20;;;;;;;;;;5044466;28;20112;-80
2021/12/29 12:57:00;;;;;;;47.10;27.90;;;;;;;;;;5049319;28;20110;-80
2021/12/29 12:59:37;;;;;;;48.55;30.05;;;;;;;;;;5031988;28;20112;-80
2021/12/29 13:02:12;;;;;;;48.88;28.65;;;;;;;;;;5048037;28;20468;-81
2021/12/29 13:05:02;;;;;;;52.60;32.33;;;;;;;;;;5044589;28;20496;-80
2021/12/29 13:07:28;;;;;;;60.58;36.22;;;;;;;;;;5051378;28;20112;-80
2021/12/29 13:09:54;;;;;;;59.90;36.13;;;;;;;;;;5047169;28;20025;-81
2021/12/29 13:12:31;;;;;;;68.25;37.30;;;;;;;;;;5050421;28;20041;-81
2021/12/29 13:15:13;;;;;;;61.53;35.90;;;;;;;;;;5047147;28;20028;-80
2021/12/29 13:17:45;;;;;;;67.85;37.42;;;;;;;;;;5039921;28;20025;-80
2021/12/29 13:20:12;;;;;;;65.72;35.75;;;;;;;;;;5048052;28;20104;-81
2021/12/29 13:22:38;;;;;;;68.15;36.13;;;;;;;;;;5046834;28;20053;-80
2021/12/29 13:25:26;;;;;;;71.35;37.30;;;;;;;;;;5049207;28;20040;-81
2021/12/29 13:28:01;;;;;;;70.72;36.35;;;;;;;;;;5048003;28;20527;-80
2021/12/29 13:30:34;;;;;;;70.22;35.25;;;;;;;;;;5045138;28;20036;-80
2021/12/29 13:33:00;;;;;;;63.75;34.58;;;;;;;;;;5045110;28;20055;-81
2021/12/29 13:35:31;;;;;;;68.72;36.47;;;;;;;;;;5046166;28;20058;-81
2021/12/29 13:38:00;;;;;;;67.97;35.13;;;;;;;;;;5041535;28;20103;-79
2021/12/29 13:40:31;;;;;;;69.22;32.70;;;;;;;;;;5046463;28;20028;-79
2021/12/29 13:42:57;;;;;;;61.80;33.53;;;;;;;;;;5045828;28;20037;-82
2021/12/29 13:45:24;;;;;;;61.75;32.38;;;;;;;;;;5034089;28;20033;-80
2021/12/29 13:47:50;;;;;;;60.75;30.38;;;;;;;;;;5049338;28;20031;-80
2021/12/29 13:50:16;;;;;;;63.08;31.40;;;;;;;;;;5049913;28;20494;-82
2021/12/29 13:52:57;;;;;;;62.60;31.77;;;;;;;;;;5044310;28;20021;-81
2021/12/29 13:55:49;;;;;;;65.38;32.22;;;;;;;;;;5049255;28;20093;-80
2021/12/29 13:58:16;;;;;;;58.65;31.73;;;;;;;;;;5025120;28;20040;-80
2021/12/29 14:00:42;;;;;;;63.78;33.53;;;;;;;;;;5051374;28;20025;-80
2021/12/29 14:03:09;;;;;;;65.10;35.35;;;;;;;;;;5049804;28;20029;-81
2021/12/29 14:05:46;;;;;;;66.97;33.75;;;;;;;;;;5034505;28;20500;-80
2021/12/29 14:08:14;;;;;;;65.40;35.25;;;;;;;;;;5041061;28;20032;-81
2021/12/29 14:10:41;;;;;;;69.82;34.00;;;;;;;;;;5049360;28;20017;-82
2021/12/29 14:13:13;;;;;;;66.03;32.53;;;;;;;;;;5042933;28;20029;-80
2021/12/29 14:15:40;;;;;;;61.95;33.58;;;;;;;;;;5040522;28;20021;-80
2021/12/29 14:18:20;;;;;;;67.10;35.42;;;;;;;;;;5047468;28;20422;-81
2021/12/29 14:20:56;;;;;;;64.68;34.88;;;;;;;;;;5049029;28;20021;-81
2021/12/29 14:23:29;;;;;;;71.40;38.13;;;;;;;;;;5034022;28;20025;-81
2021/12/29 14:25:55;;;;;;;70.60;35.80;;;;;;;;;;5045303;28;20104;-82
2021/12/29 14:28:25;;;;;;;58.38;33.47;;;;;;;;;;5047433;28;20044;-81
2021/12/29 14:31:02;;;;;;;67.95;33.20;;;;;;;;;;5049744;28;20175;-82
2021/12/29 14:33:40;;;;;;;72.35;35.42;;;;;;;;;;5040840;28;20779;-80
2021/12/29 14:36:11;;;;;;;68.43;35.88;;;;;;;;;;5040757;28;20480;-82
2021/12/29 14:38:38;;;;;;;66.18;36.53;;;;;;;;;;5050534;28;20060;-81
2021/12/29 14:41:17;;;;;;;73.30;40.60;;;;;;;;;;5050334;28;20083;-80